Nearby METAR Reports

 

KEDC - Austin Exec, Texas, USA
Distance from station: SSE 10mi, 17km
Updated: Mon, 14-Jun-2021 9:55pm CDT
Clear
Clear
 Wind from calm
Wind: Calm
Temperature: 81°F , 27°C
Heat Index: 84°F , 29°C
Dew Point: 68°F , 20°C
Humidity: 66%
Barometer: 29.94 inHg , 1013.9 hPa
Clouds: Clear
Visibility: 10 miles , 16 km
2021/06/15 02:55 KEDC 150255Z AUTO 00000KT 10SM CLR 27/20 A2994 RMK AO2
KGTU - Georgetown, Texas, USA
Distance from station: NNW 11mi, 17km
Updated: Mon, 14-Jun-2021 9:56pm CDT
Clear
Clear
 Wind from NNE
Wind: NNE 3 mph , 6 km/h
Temperature: 82°F , 28°C
Heat Index: 86°F , 30°C
Dew Point: 70°F , 21°C
Humidity: 66%
Barometer: 29.98 inHg , 1015.2 hPa
Clouds: Clear
Visibility: 10 miles , 16 km
2021/06/15 02:56 KGTU 150256Z 02003KT 10SM CLR 28/21 A2998 RMK AO2 SLP145 T02830206 51012
 
KATT - Austin/Mabry, Texas, USA
Distance from station: SSW 18mi, 30km
Updated: Mon, 14-Jun-2021 9:51pm CDT
Clear
Clear
 Wind from varies
Wind: varies 5 mph , 7 km/h
Temperature: 84°F , 29°C
Heat Index: 86°F , 30°C
Dew Point: 66°F , 19°C
Humidity: 55%
Barometer: 29.96 inHg , 1014.6 hPa
Clouds: Clear
Visibility: 10 miles , 16 km
2021/06/15 02:51 KATT 150251Z AUTO VRB04KT 10SM CLR 29/19 A2996 RMK AO2 SLP129 T02940194 51010
KRYW - Lago Vista, Texas, USA
Distance from station: W 22mi, 35km
Updated: Mon, 14-Jun-2021 10:15pm CDT
Clear
Clear
 Wind from NE
Wind: NE 3 mph , 6 km/h
Temperature: 79°F , 26°C
Dew Point: 66°F , 19°C
Humidity: 65%
Barometer: 30.01 inHg , 1016.3 hPa
Clouds: Clear
Visibility: 10 miles , 16 km
2021/06/15 03:15 KRYW 150315Z AUTO 04003KT 10SM CLR 26/19 A3001 RMK AO2 T02610185
 
KAUS - Austin, Texas, USA
Distance from station: S 25mi, 41km
Updated: Mon, 14-Jun-2021 9:53pm CDT
Partly cloudy
Partly cloudy
 Wind from SSW
Wind: SSW 3 mph , 6 km/h
Temperature: 77°F , 25°C
Dew Point: 72°F , 22°C
Humidity: 83%
Barometer: 29.94 inHg , 1013.9 hPa
Clouds: Partly cloudy
Visibility: 10 miles , 16 km
Cloud details: Few Clouds 20000 ft
Partly cloudy 25000 ft
2021/06/15 02:53 KAUS 150253Z 21003KT 10SM FEW200 SCT250 25/22 A2994 RMK AO2 SLP127 T02500217 51008
KILE - Killeen Muni, Texas, USA
Distance from station: N 36mi, 58km
Updated: Mon, 14-Jun-2021 9:56pm CDT
Clear
Clear
 Wind from NW
Wind: NW 5 mph , 7 km/h
Temperature: 81°F , 27°C
Heat Index: 83°F , 28°C
Dew Point: 66°F , 19°C
Humidity: 62%
Barometer: 29.98 inHg , 1015.2 hPa
Clouds: Clear
Visibility: 10 miles , 16 km
2021/06/15 02:56 KILE 150256Z AUTO 31004KT 10SM CLR 27/19 A2998 RMK AO2 SLP139 T02670194 51012
 
KGRK - Gray/Ft Hood, Texas, USA
Distance from station: NNW 38mi, 62km
Updated: Mon, 14-Jun-2021 9:56pm CDT
Clear
Clear
 Wind from N
Wind: N 14 mph , 22 km/h
Temperature: 77°F , 25°C
Dew Point: 63°F , 17°C
Humidity: 61%
Barometer: 29.97 inHg , 1014.9 hPa
Clouds: Clear
Visibility: 9 miles , 14 km
2021/06/15 02:56 KGRK 150256Z AUTO 36012KT 9SM CLR 25/17 A2997 RMK AO2 SLP137 T02500174 51009
KBMQ - Burnet, Texas, USA
Distance from station: WNW 39mi, 64km
Updated: Mon, 14-Jun-2021 9:53pm CDT
Clear
Clear
 Wind from NNE
Wind: NNE 9 mph , 15 km/h
Temperature: 81°F , 27°C
Heat Index: 82°F , 28°C
Dew Point: 63°F , 17°C
Humidity: 54%
Barometer: 30.01 inHg , 1016.3 hPa
Clouds: Clear
Visibility: 10 miles , 16 km
2021/06/15 02:53 KBMQ 150253Z AUTO 02008KT 10SM CLR 27/17 A3001 RMK AO2 SLP141 T02720172 50011
 
KHLR - Ft Hood/Killeen, Texas, USA
Distance from station: N 41mi, 66km
Updated: Mon, 14-Jun-2021 9:58pm CDT
Clear
Clear
 Wind from WNW
Wind: WNW 7 mph , 11 km/h
Temperature: 79°F , 26°C
Dew Point: 64°F , 18°C
Humidity: 61%
Barometer: 29.98 inHg , 1015.2 hPa
Clouds: Clear
Visibility: 10 miles , 16 km
2021/06/15 02:58 KHLR 150258Z AUTO 29006KT 10SM CLR 26/18 A2998 RMK AO2 SLP140 T02620181 50010
KTPL - Temple/Miller, Texas, USA
Distance from station: NNE 42mi, 68km
Updated: Mon, 14-Jun-2021 9:51pm CDT
Clear
Clear
 Wind from N
Wind: N 7 mph , 11 km/h
Temperature: 79°F , 26°C
Dew Point: 70°F , 21°C
Humidity: 74%
Barometer: 29.97 inHg , 1014.9 hPa
Clouds: Clear
Visibility: 10 miles , 16 km
2021/06/15 02:51 KTPL 150251Z AUTO 36006KT 10SM CLR 26/21 A2997 RMK AO2 SLP137 T02610211 50010
 
KT35 - Cameron, Texas, USA
Distance from station: ENE 45mi, 72km
Updated: Mon, 14-Jun-2021 10:15pm CDT
Clear
Clear
 Wind from N
Wind: N 5 mph , 7 km/h
Temperature: 82°F , 28°C
Heat Index: 87°F , 31°C
Dew Point: 73°F , 23°C
Humidity: 74%
Barometer: 29.95 inHg , 1014.2 hPa
Clouds: Clear
Visibility: 10 miles , 16 km
2021/06/15 03:15 KT35 150315Z AUTO 36004KT 10SM CLR 28/23 A2995 RMK AO2 T02800227
KDZB - Horseshoe Bay, Texas, USA
Distance from station: W 45mi, 73km
Updated: Mon, 14-Jun-2021 10:15pm CDT
Clear
Clear
 Wind from calm
Wind: Calm
Temperature: 79°F , 26°C
Dew Point: 66°F , 19°C
Humidity: 65%
Barometer: 30.00 inHg , 1015.9 hPa
Clouds: Clear
Visibility: 10 miles , 16 km
2021/06/15 03:15 KDZB 150315Z AUTO 00000KT 10SM CLR 26/19 A3000 RMK AO2 T02620192
 
KGYB - Giddings-Lee, Texas, USA
Distance from station: SE 45mi, 73km
Updated: Mon, 14-Jun-2021 10:15pm CDT
Clear
Clear
 Wind from calm
Wind: Calm
Temperature: 77°F , 25°C
Dew Point: 72°F , 22°C
Humidity: 83%
Barometer: 29.96 inHg , 1014.6 hPa
Clouds: Clear
Visibility: 10 miles , 16 km
2021/06/15 03:15 KGYB 150315Z AUTO 00000KT 10SM CLR 25/22 A2996 RMK AO2 T02520215
KHYI - San Marcos, Texas, USA
Distance from station: SSW 48mi, 78km
Updated: Mon, 14-Jun-2021 9:56pm CDT
Clear
Clear
 Wind from WSW
Wind: WSW 5 mph , 7 km/h
Temperature: 81°F , 27°C
Heat Index: 84°F , 29°C
Dew Point: 68°F , 20°C
Humidity: 66%
Barometer: 29.97 inHg , 1014.9 hPa
Clouds: Clear
Visibility: 10 miles , 16 km
2021/06/15 02:56 KHYI 150256Z AUTO 24004KT 10SM CLR 27/20 A2997 RMK AO2 SLP138 T02670200 53008
 
KLZZ - Lampasas, Texas, USA
Distance from station: NW 52mi, 84km
Updated: Mon, 14-Jun-2021 9:55pm CDT
Clear
Clear
 Wind from calm
Wind: Calm
Temperature: 77°F , 25°C
Dew Point: 64°F , 18°C
Humidity: 65%
Barometer: 29.97 inHg , 1014.9 hPa
Clouds: Clear
Visibility: 10 miles , 16 km
2021/06/15 02:55 KLZZ 150255Z AUTO 00000KT 10SM CLR 25/18 A2997 RMK AO2 T02470178
KRWV - Caldwell, Texas, USA
Distance from station: E 54mi, 87km
Updated: Mon, 14-Jun-2021 10:15pm CDT
Clear
Clear
 Wind from calm
Wind: Calm
Temperature: 77°F , 25°C
Dew Point: 73°F , 23°C
Humidity: 89%
Barometer: 29.95 inHg , 1014.2 hPa
Clouds: Clear
Visibility: 10 miles , 16 km
2021/06/15 03:15 KRWV 150315Z AUTO 00000KT 10SM CLR 25/23 A2995 RMK AO2 T02460229
 
K3T5 - La Grange, Texas, USA
Distance from station: SE 59mi, 95km
Updated: Mon, 14-Jun-2021 10:15pm CDT
Clear
Clear
 Wind from calm
Wind: Calm
Temperature: 77°F , 25°C
Dew Point: 77°F , 25°C
Humidity: 100%
Barometer: 29.93 inHg , 1013.5 hPa
Clouds: Clear
Visibility: 10 miles , 16 km
2021/06/15 03:15 K3T5 150315Z AUTO 00000KT 10SM CLR 25/25 A2993 RMK AO2 T02470247
KGOP - Gatesville, Texas, USA
Distance from station: N 61mi, 99km
Updated: Mon, 14-Jun-2021 10:15pm CDT
Clear
Clear
 Wind from calm
Wind: Calm
Temperature: 77°F , 25°C
Dew Point: 66°F , 19°C
Humidity: 69%
Barometer: 30.00 inHg , 1015.9 hPa
Clouds: Clear
Visibility: 10 miles , 16 km
2021/06/15 03:15 KGOP 150315Z AUTO 00000KT 10SM CLR 25/19 A3000 RMK AO2
 
KLHB - Hearne Muni, Texas, USA
Distance from station: ENE 63mi, 101km
Updated: Mon, 14-Jun-2021 10:15pm CDT
Clear
Clear
 Wind from calm
Wind: Calm
Temperature: 82°F , 28°C
Heat Index: 90°F , 32°C
Dew Point: 77°F , 25°C
Humidity: 84%
Barometer: 29.95 inHg , 1014.2 hPa
Clouds: Clear
Visibility: 7 miles , 11 km
2021/06/15 03:15 KLHB 150315Z AUTO 00000KT 7SM CLR 28/25 A2995 RMK AO2 T02830248 PWINO
KBAZ - New Braunfels, Texas, USA
Distance from station: SSW 63mi, 102km
Updated: Mon, 14-Jun-2021 9:51pm CDT
Clear
Clear
 Wind from ENE
Wind: ENE 5 mph , 7 km/h
Temperature: 79°F , 26°C
Dew Point: 70°F , 21°C
Humidity: 74%
Barometer: 29.97 inHg , 1014.9 hPa
Clouds: Clear
Visibility: 10 miles , 16 km
2021/06/15 02:51 KBAZ 150251Z AUTO 07004KT 10SM CLR 26/21 A2997 RMK AO2 SLP138 T02560206 53018